Time;durP1;ratioP1;P1;durP2;ratioP2;P2;SDS_P1;SDS_P2;PMS_P1;PMS_P2;Temp;Humidity;BMP_temperature;BMP_pressure;BME280_temperature;BME280_humidity;BME280_pressure;Samples;Min_cycle;Max_cycle;Signal;HPM_P1;HPM_P2
2023/03/31 00:01:07;;;;;;;3.03;2.28;;;14.70;99.90;;;;;;5114469;28;20243;-79
2023/03/31 00:03:37;;;;;;;5.90;2.63;;;14.70;99.90;;;;;;5113630;28;20232;-77
2023/03/31 00:06:06;;;;;;;5.07;2.55;;;14.70;99.90;;;;;;5114208;28;20266;-75
2023/03/31 00:08:35;;;;;;;8.30;3.90;;;14.70;99.90;;;;;;5113582;28;20204;-76
2023/03/31 00:11:03;;;;;;;6.22;4.30;;;14.70;99.90;;;;;;5113240;28;20737;-76
2023/03/31 00:13:31;;;;;;;5.18;2.65;;;14.80;99.90;;;;;;5113387;28;20238;-78
2023/03/31 00:15:59;;;;;;;7.40;2.88;;;14.80;99.90;;;;;;5113548;28;20236;-81
2023/03/31 00:18:26;;;;;;;5.82;2.58;;;14.80;99.90;;;;;;5113200;28;20610;-79
2023/03/31 00:20:54;;;;;;;3.05;2.63;;;14.90;99.90;;;;;;5113359;28;20259;-78
2023/03/31 00:23:26;;;;;;;4.35;2.65;;;14.90;99.90;;;;;;5113146;28;20266;-74
2023/03/31 00:25:54;;;;;;;4.72;2.08;;;14.90;99.90;;;;;;5113897;28;20200;-77
2023/03/31 00:28:21;;;;;;;3.78;2.65;;;14.90;99.90;;;;;;5113666;28;20209;-75
2023/03/31 00:30:48;;;;;;;4.57;1.85;;;14.90;99.90;;;;;;5113409;28;20232;-77
2023/03/31 00:33:16;;;;;;;5.38;3.10;;;14.80;99.90;;;;;;5112672;28;20231;-72
2023/03/31 00:35:44;;;;;;;7.25;2.88;;;14.80;99.90;;;;;;5113230;28;20200;-72
2023/03/31 00:38:13;;;;;;;6.88;3.08;;;14.80;99.90;;;;;;5112592;28;20289;-73
2023/03/31 00:40:47;;;;;;;8.68;3.47;;;14.80;99.90;;;;;;5112826;28;20229;-73
2023/03/31 00:43:28;;;;;;;3.80;1.98;;;14.80;99.90;;;;;;5112630;28;20250;-73
2023/03/31 00:46:14;;;;;;;4.50;2.92;;;14.80;99.90;;;;;;5112852;28;20201;-73
2023/03/31 00:48:47;;;;;;;7.82;3.13;;;14.90;99.90;;;;;;5112586;28;20196;-73
2023/03/31 00:51:14;;;;;;;3.33;2.80;;;14.90;99.90;;;;;;5112242;28;20680;-72
2023/03/31 00:53:42;;;;;;;3.28;2.58;;;14.90;99.90;;;;;;5112683;28;20203;-73
2023/03/31 00:56:14;;;;;;;3.97;3.33;;;14.80;99.90;;;;;;5112760;28;20196;-73
2023/03/31 00:58:44;;;;;;;6.00;2.42;;;14.80;99.90;;;;;;5112567;28;20232;-72
2023/03/31 01:01:16;;;;;;;3.35;2.10;;;14.80;99.90;;;;;;5112066;28;20268;-72
2023/03/31 01:03:44;;;;;;;4.47;2.90;;;14.90;99.90;;;;;;5112530;28;20232;-72
2023/03/31 01:06:13;;;;;;;6.15;2.70;;;14.90;99.90;;;;;;5112404;28;20205;-72
2023/03/31 01:08:41;;;;;;;4.88;3.05;;;14.90;99.90;;;;;;5112506;28;20196;-73
2023/03/31 01:11:15;;;;;;;5.10;2.80;;;14.80;99.90;;;;;;5112460;28;20252;-72
2023/03/31 01:13:44;;;;;;;2.72;2.10;;;14.70;99.90;;;;;;5112118;28;20197;-75
2023/03/31 01:16:12;;;;;;;4.55;2.85;;;14.70;99.90;;;;;;5111856;28;20201;-73
2023/03/31 01:18:39;;;;;;;5.63;2.60;;;14.60;99.90;;;;;;5112341;28;20228;-74
2023/03/31 01:21:46;;;;;;;7.35;3.53;;;14.70;99.90;;;;;;5112613;28;20267;-72
2023/03/31 01:24:52;;;;;;;6.60;3.53;;;14.60;99.90;;;;;;5109712;28;20232;-76
2023/03/31 01:27:52;;;;;;;6.72;4.45;;;14.50;99.90;;;;;;5111806;28;20631;-75
2023/03/31 01:31:17;;;;;;;17.13;11.88;;;14.50;99.90;;;;;;5105713;28;20563;-77
2023/03/31 01:34:23;;;;;;;18.58;14.10;;;14.40;99.90;;;;;;5049302;28;20265;-75
2023/03/31 01:37:15;;;;;;;24.60;15.20;;;14.30;99.90;;;;;;5024647;28;20241;-76
2023/03/31 01:40:17;;;;;;;19.55;14.90;;;14.30;99.90;;;;;;5100161;28;20293;-74
2023/03/31 01:42:52;;;;;;;21.02;14.43;;;14.30;99.90;;;;;;5111804;28;20663;-77
2023/03/31 01:45:30;;;;;;;12.05;8.07;;;14.20;99.90;;;;;;5111338;28;20235;-81
2023/03/31 01:48:01;;;;;;;9.90;5.82;;;14.20;99.90;;;;;;5111723;28;20240;-75
2023/03/31 01:50:33;;;;;;;7.35;4.85;;;14.20;99.90;;;;;;5111447;28;20240;-75
2023/03/31 01:53:08;;;;;;;6.55;3.95;;;14.20;99.90;;;;;;5111374;28;20240;-75
2023/03/31 01:55:40;;;;;;;6.10;3.42;;;14.10;99.90;;;;;;5111739;28;20667;-78
2023/03/31 01:58:12;;;;;;;7.97;3.35;;;14.10;99.90;;;;;;5111333;28;20668;-79
2023/03/31 02:00:43;;;;;;;6.95;2.78;;;14.10;99.90;;;;;;5111127;28;20580;-77
2023/03/31 02:03:15;;;;;;;5.38;3.08;;;14.10;99.90;;;;;;5111134;28;20200;-75
2023/03/31 02:05:47;;;;;;;5.95;2.08;;;14.00;99.90;;;;;;5111275;28;20730;-75
2023/03/31 02:08:19;;;;;;;6.10;2.83;;;14.00;99.90;;;;;;5110941;28;20680;-75
2023/03/31 02:10:49;;;;;;;7.53;2.60;;;13.90;99.90;;;;;;5111335;28;20212;-75
2023/03/31 02:13:18;;;;;;;3.35;2.30;;;13.80;99.90;;;;;;5110837;28;20200;-78
2023/03/31 02:15:50;;;;;;;7.32;3.03;;;13.70;99.90;;;;;;5111381;28;20232;-75
2023/03/31 02:18:20;;;;;;;3.53;3.17;;;13.70;99.90;;;;;;5111012;28;20243;-77
2023/03/31 02:20:49;;;;;;;10.45;3.83;;;13.60;99.90;;;;;;5111056;28;20236;-74
2023/03/31 02:23:21;;;;;;;8.88;3.83;;;13.60;99.90;;;;;;5110928;28;20243;-75
2023/03/31 02:25:52;;;;;;;9.05;3.00;;;13.60;99.90;;;;;;5111157;28;20691;-78
2023/03/31 02:28:22;;;;;;;15.52;4.60;;;13.60;99.90;;;;;;5110604;28;20251;-77
2023/03/31 02:30:58;;;;;;;5.85;3.45;;;13.50;99.90;;;;;;5111104;28;20676;-76
2023/03/31 02:33:25;;;;;;;9.52;4.18;;;13.40;99.90;;;;;;5110627;28;20668;-77
2023/03/31 02:35:52;;;;;;;6.47;3.22;;;13.30;99.90;;;;;;5111224;28;20240;-74
2023/03/31 02:38:19;;;;;;;8.50;3.60;;;13.30;99.90;;;;;;5110861;28;20239;-73
2023/03/31 02:40:47;;;;;;;7.25;2.90;;;13.20;99.90;;;;;;5110959;28;20240;-77
2023/03/31 02:43:15;;;;;;;4.50;2.40;;;13.20;99.90;;;;;;5111083;28;20236;-77
2023/03/31 02:45:45;;;;;;;8.40;3.15;;;13.20;99.90;;;;;;5111416;28;20679;-77
2023/03/31 02:48:17;;;;;;;5.70;2.85;;;13.30;99.90;;;;;;5111305;28;20232;-76
2023/03/31 02:51:09;;;;;;;7.05;3.53;;;13.40;99.90;;;;;;5111630;28;20197;-84
2023/03/31 02:53:47;;;;;;;4.97;3.47;;;13.40;99.90;;;;;;5083336;28;20232;-82
2023/03/31 02:56:28;;;;;;;7.50;3.67;;;13.40;99.90;;;;;;5111992;28;20232;-83
2023/03/31 02:59:14;;;;;;;4.68;3.13;;;13.50;99.90;;;;;;5112250;28;20244;-83
2023/03/31 03:01:52;;;;;;;7.22;3.65;;;13.40;99.90;;;;;;5111444;28;20268;-90
2023/03/31 03:04:38;;;;;;;6.85;3.28;;;13.30;99.90;;;;;;5111311;28;20232;-84
2023/03/31 03:07:11;;;;;;;5.82;2.88;;;13.40;99.90;;;;;;5111743;28;20253;-78
2023/03/31 03:09:49;;;;;;;4.32;3.08;;;13.20;99.90;;;;;;5112512;28;20756;-79
2023/03/31 03:12:21;;;;;;;7.43;3.80;;;13.30;99.90;;;;;;5114344;28;20200;-77
2023/03/31 03:14:52;;;;;;;6.53;3.20;;;13.30;99.90;;;;;;5115185;28;20251;-74
2023/03/31 03:17:25;;;;;;;3.35;3.05;;;13.30;99.90;;;;;;5114698;28;20236;-76
2023/03/31 03:19:54;;;;;;;6.07;3.63;;;13.30;99.90;;;;;;5115221;28;20201;-77
2023/03/31 03:22:21;;;;;;;4.40;2.67;;;13.30;99.90;;;;;;5114577;28;20268;-77
2023/03/31 03:24:48;;;;;;;5.85;3.22;;;13.30;99.90;;;;;;5115028;28;20232;-78
2023/03/31 03:27:15;;;;;;;7.95;4.38;;;13.20;99.90;;;;;;5114355;28;20684;-75
2023/03/31 03:29:42;;;;;;;6.35;3.38;;;13.20;99.90;;;;;;5114654;28;20273;-73
2023/03/31 03:32:11;;;;;;;5.88;4.03;;;13.10;99.90;;;;;;5114516;28;20209;-74
2023/03/31 03:34:38;;;;;;;4.68;3.83;;;13.10;99.90;;;;;;5114560;28;20630;-73
2023/03/31 03:37:05;;;;;;;7.72;4.60;;;13.10;99.90;;;;;;5114450;28;20661;-74
2023/03/31 03:39:32;;;;;;;5.03;3.13;;;13.10;99.90;;;;;;5113789;28;20209;-69
2023/03/31 03:41:59;;;;;;;2.90;2.70;;;13.20;99.90;;;;;;5113829;28;20321;-70
2023/03/31 03:44:26;;;;;;;4.05;2.42;;;13.30;99.90;;;;;;5113858;28;20204;-69
2023/03/31 03:46:53;;;;;;;9.65;4.05;;;13.20;99.90;;;;;;5114152;28;20235;-70
2023/03/31 03:49:22;;;;;;;9.20;3.70;;;13.00;99.90;;;;;;5113660;28;20277;-69
2023/03/31 03:51:49;;;;;;;6.45;3.55;;;13.00;99.90;;;;;;5112411;27;20945;-73
2023/03/31 03:54:16;;;;;;;7.70;3.13;;;13.00;99.90;;;;;;5112523;28;20209;-73
2023/03/31 03:56:46;;;;;;;9.00;3.72;;;12.80;99.90;;;;;;5113631;28;20201;-71
2023/03/31 03:59:21;;;;;;;5.90;3.92;;;12.90;99.90;;;;;;5113041;28;20584;-72
2023/03/31 04:01:48;;;;;;;6.88;3.47;;;12.90;99.90;;;;;;5113449;28;20223;-73
2023/03/31 04:04:15;;;;;;;5.72;3.63;;;12.80;99.90;;;;;;5112955;28;20235;-75
2023/03/31 04:06:44;;;;;;;7.93;4.32;;;12.70;99.90;;;;;;5113854;28;20204;-76
2023/03/31 04:09:11;;;;;;;7.07;3.53;;;12.70;99.90;;;;;;5113137;28;20208;-75
2023/03/31 04:11:38;;;;;;;6.05;3.55;;;12.70;99.90;;;;;;5113596;28;20687;-76
2023/03/31 04:14:05;;;;;;;5.47;3.47;;;12.70;99.90;;;;;;5113621;28;20200;-76
2023/03/31 04:16:33;;;;;;;4.32;2.90;;;12.70;99.90;;;;;;5113075;28;20236;-77
2023/03/31 04:19:02;;;;;;;7.50;3.78;;;12.80;99.90;;;;;;5113335;28;20232;-76
2023/03/31 04:21:33;;;;;;;5.63;4.15;;;12.70;99.90;;;;;;5112630;28;20240;-76
2023/03/31 04:24:03;;;;;;;4.38;2.92;;;12.60;99.90;;;;;;5112801;28;20253;-76
2023/03/31 04:26:41;;;;;;;7.90;4.28;;;12.50;99.90;;;;;;5112882;28;20685;-77
2023/03/31 04:29:09;;;;;;;3.28;2.75;;;12.40;99.90;;;;;;5113245;28;20193;-72
2023/03/31 04:31:41;;;;;;;9.10;3.67;;;12.60;99.90;;;;;;5113259;28;20265;-74
2023/03/31 04:34:12;;;;;;;8.52;3.45;;;12.50;99.90;;;;;;5113320;28;20240;-71
2023/03/31 04:36:41;;;;;;;8.40;2.90;;;12.50;99.90;;;;;;5112850;28;20700;-70
2023/03/31 04:39:10;;;;;;;5.65;2.97;;;12.50;99.90;;;;;;5113006;28;20215;-72
2023/03/31 04:41:38;;;;;;;4.88;4.05;;;12.60;99.90;;;;;;5113031;28;20613;-78
2023/03/31 04:44:05;;;;;;;11.15;3.67;;;12.70;99.90;;;;;;5113098;28;20644;-76
2023/03/31 04:46:34;;;;;;;4.18;3.72;;;12.80;99.90;;;;;;5108309;28;20198;-78
2023/03/31 04:49:01;;;;;;;4.50;4.03;;;12.90;99.90;;;;;;5092221;28;20206;-77
2023/03/31 04:51:29;;;;;;;5.30;3.80;;;13.00;99.90;;;;;;5092018;28;20296;-75
2023/03/31 04:53:56;;;;;;;14.20;5.80;;;13.10;99.90;;;;;;5091970;28;20209;-74
2023/03/31 04:56:25;;;;;;;6.60;4.60;;;13.20;99.90;;;;;;5091854;28;20230;-77
2023/03/31 04:58:52;;;;;;;4.07;3.10;;;13.20;99.90;;;;;;5092121;28;20262;-74
2023/03/31 05:01:19;;;;;;;11.90;4.38;;;13.20;99.90;;;;;;5091576;28;20654;-76
2023/03/31 05:03:47;;;;;;;6.05;3.47;;;13.30;99.90;;;;;;5091706;28;20288;-75
2023/03/31 05:06:14;;;;;;;8.68;3.80;;;13.30;99.90;;;;;;5091398;28;20201;-75
2023/03/31 05:08:42;;;;;;;11.93;4.60;;;13.30;99.90;;;;;;5091778;28;20197;-73
2023/03/31 05:11:09;;;;;;;4.55;3.38;;;13.30;99.90;;;;;;5091731;28;20244;-74
2023/03/31 05:13:38;;;;;;;4.25;3.80;;;13.40;99.90;;;;;;5092262;28;20205;-75
2023/03/31 05:16:09;;;;;;;5.80;3.35;;;13.40;99.90;;;;;;5092267;28;20252;-72
2023/03/31 05:18:36;;;;;;;8.77;3.80;;;13.30;99.90;;;;;;5091839;28;20233;-71
2023/03/31 05:21:15;;;;;;;7.80;3.45;;;13.30;99.90;;;;;;5091958;28;20201;-72
2023/03/31 05:23:43;;;;;;;6.10;4.82;;;13.40;99.90;;;;;;5091423;28;20275;-73
2023/03/31 05:26:10;;;;;;;6.97;3.58;;;13.40;99.90;;;;;;5091467;28;20643;-71
2023/03/31 05:28:39;;;;;;;8.20;4.10;;;13.50;99.90;;;;;;5091991;28;20212;-72
2023/03/31 05:31:08;;;;;;;5.47;3.55;;;13.40;99.90;;;;;;5092026;28;20236;-75
2023/03/31 05:33:38;;;;;;;10.18;3.83;;;13.40;99.90;;;;;;5090850;28;20201;-74
2023/03/31 05:36:06;;;;;;;5.43;3.17;;;13.50;99.90;;;;;;5091722;28;20209;-73
2023/03/31 05:38:33;;;;;;;9.25;4.13;;;13.50;99.90;;;;;;5091295;28;20209;-75
2023/03/31 05:41:00;;;;;;;7.18;3.70;;;13.60;99.90;;;;;;5091671;28;20638;-75
2023/03/31 05:43:27;;;;;;;12.30;4.47;;;13.60;99.90;;;;;;5090982;28;20325;-72
2023/03/31 05:45:56;;;;;;;4.28;3.40;;;13.60;99.90;;;;;;5091106;28;20244;-71
2023/03/31 05:48:22;;;;;;;7.32;4.15;;;13.50;99.90;;;;;;5090400;28;20244;-70
2023/03/31 05:50:49;;;;;;;5.53;4.57;;;13.50;99.90;;;;;;5091336;28;20197;-74
2023/03/31 05:53:16;;;;;;;8.95;3.88;;;13.50;99.90;;;;;;5090635;28;20237;-71
2023/03/31 05:55:43;;;;;;;11.00;4.88;;;13.50;99.90;;;;;;5091060;28;20247;-71
2023/03/31 05:58:10;;;;;;;9.48;4.43;;;13.50;99.90;;;;;;5090862;28;20205;-73
2023/03/31 06:00:38;;;;;;;6.88;4.70;;;13.60;99.90;;;;;;5091527;28;20201;-70
2023/03/31 06:03:06;;;;;;;8.73;4.15;;;13.60;99.90;;;;;;5091236;28;20257;-70
2023/03/31 06:05:34;;;;;;;8.20;4.00;;;13.70;99.90;;;;;;5090518;28;20205;-72
2023/03/31 06:08:01;;;;;;;9.05;5.45;;;13.70;99.90;;;;;;5091054;28;20205;-72
2023/03/31 06:10:28;;;;;;;9.70;4.93;;;13.70;99.90;;;;;;5090490;28;20279;-71
2023/03/31 06:12:55;;;;;;;8.23;4.00;;;13.70;99.90;;;;;;5090759;28;20241;-74
2023/03/31 06:15:22;;;;;;;5.40;4.30;;;13.70;99.90;;;;;;5102010;28;20214;-74
2023/03/31 06:17:49;;;;;;;7.60;3.92;;;13.80;99.90;;;;;;5109428;28;20767;-76
2023/03/31 06:20:17;;;;;;;7.05;3.65;;;13.80;99.90;;;;;;5110167;28;20239;-72
2023/03/31 06:22:44;;;;;;;7.07;4.32;;;13.80;99.90;;;;;;5109774;28;20271;-70
2023/03/31 06:25:11;;;;;;;8.65;4.15;;;13.80;99.90;;;;;;5110760;28;20672;-73
2023/03/31 06:27:38;;;;;;;8.85;4.32;;;13.90;99.90;;;;;;5110340;28;20228;-74
2023/03/31 06:30:05;;;;;;;9.02;3.80;;;13.90;99.90;;;;;;5109641;28;20318;-75
2023/03/31 06:32:32;;;;;;;7.30;4.45;;;13.80;99.90;;;;;;5110285;28;20208;-75
2023/03/31 06:34:59;;;;;;;5.85;4.35;;;13.80;99.90;;;;;;5110608;28;20204;-74
2023/03/31 06:37:28;;;;;;;3.95;3.35;;;13.90;99.90;;;;;;5110691;28;20664;-74
2023/03/31 06:39:55;;;;;;;11.45;4.18;;;13.90;99.90;;;;;;5111024;28;20247;-73
2023/03/31 06:42:22;;;;;;;9.50;4.53;;;13.90;99.90;;;;;;5110496;28;20620;-76
2023/03/31 06:44:48;;;;;;;6.45;4.45;;;13.90;99.90;;;;;;5114134;28;20228;-75
2023/03/31 06:47:15;;;;;;;12.45;4.18;;;14.00;99.90;;;;;;5115033;28;20236;-75
2023/03/31 06:49:42;;;;;;;13.52;4.13;;;14.00;99.90;;;;;;5110228;27;20236;-74
2023/03/31 06:52:09;;;;;;;6.60;4.47;;;14.10;99.90;;;;;;5116568;27;20304;-74
2023/03/31 06:54:38;;;;;;;12.02;4.68;;;14.10;99.90;;;;;;5114528;27;20236;-74
2023/03/31 06:57:04;;;;;;;16.38;4.82;;;14.20;99.90;;;;;;5131352;27;20261;-74
2023/03/31 06:59:31;;;;;;;6.53;4.65;;;14.40;99.90;;;;;;5135418;27;20567;-72
2023/03/31 07:01:58;;;;;;;16.08;5.85;;;14.50;99.90;;;;;;5135651;27;20235;-73
2023/03/31 07:04:25;;;;;;;16.17;5.65;;;14.60;99.90;;;;;;5133869;27;20239;-75
2023/03/31 07:06:52;;;;;;;12.95;5.55;;;14.70;99.90;;;;;;5135343;27;20242;-74
2023/03/31 07:09:22;;;;;;;22.65;7.00;;;14.70;99.90;;;;;;5134920;27;20227;-74
2023/03/31 07:11:50;;;;;;;20.17;6.22;;;14.80;99.90;;;;;;5135335;27;20255;-74
2023/03/31 07:14:17;;;;;;;12.25;5.82;;;14.90;99.90;;;;;;5135061;27;20235;-73
2023/03/31 07:16:44;;;;;;;21.63;5.75;;;15.00;99.90;;;;;;5134987;27;20671;-73
2023/03/31 07:19:11;;;;;;;17.63;5.78;;;15.00;99.90;;;;;;5134730;27;20292;-73
2023/03/31 07:21:38;;;;;;;17.55;6.40;;;15.00;99.90;;;;;;5135127;27;20214;-73
2023/03/31 07:24:05;;;;;;;16.15;5.68;;;15.00;99.90;;;;;;5135388;27;20263;-74
2023/03/31 07:26:32;;;;;;;18.65;7.63;;;15.00;99.90;;;;;;5135204;27;20243;-75
2023/03/31 07:29:00;;;;;;;16.60;6.82;;;15.00;99.90;;;;;;5134790;27;20683;-75
2023/03/31 07:31:27;;;;;;;20.10;5.20;;;15.00;99.90;;;;;;5134440;27;20251;-73
2023/03/31 07:33:54;;;;;;;19.23;5.40;;;15.00;99.90;;;;;;5134730;27;20231;-73
2023/03/31 07:36:21;;;;;;;16.08;7.57;;;15.20;99.90;;;;;;5134438;27;20253;-74
2023/03/31 07:38:49;;;;;;;14.68;5.40;;;15.40;99.90;;;;;;5134658;27;20228;-73
2023/03/31 07:41:18;;;;;;;25.02;5.72;;;15.70;99.90;;;;;;5134563;27;20200;-72
2023/03/31 07:43:45;;;;;;;12.40;5.30;;;15.90;99.90;;;;;;5134538;27;20658;-72
2023/03/31 07:46:19;;;;;;;10.40;4.13;;;16.00;99.90;;;;;;5134361;27;20204;-73
2023/03/31 07:48:47;;;;;;;9.35;4.03;;;15.80;99.90;;;;;;5128880;27;20200;-73
2023/03/31 07:51:15;;;;;;;12.90;5.10;;;15.50;99.90;;;;;;5113721;28;20648;-72
2023/03/31 07:53:42;;;;;;;10.63;5.28;;;15.40;99.90;;;;;;5114228;28;20201;-73
2023/03/31 07:56:09;;;;;;;13.57;6.53;;;15.30;99.90;;;;;;5113263;28;20232;-72
2023/03/31 07:58:36;;;;;;;15.40;5.03;;;15.30;99.90;;;;;;5114310;28;20200;-72
2023/03/31 08:01:03;;;;;;;17.83;5.65;;;15.40;99.90;;;;;;5113808;28;20209;-72
2023/03/31 08:03:33;;;;;;;8.75;4.28;;;15.30;99.90;;;;;;5113027;28;20271;-73
2023/03/31 08:06:00;;;;;;;17.92;5.57;;;15.20;99.90;;;;;;5113610;28;20211;-74
2023/03/31 08:08:27;;;;;;;18.38;4.90;;;15.20;99.90;;;;;;5113306;28;20724;-73
2023/03/31 08:10:54;;;;;;;17.00;6.45;;;15.10;99.90;;;;;;5113484;28;20248;-72
2023/03/31 08:13:21;;;;;;;18.75;7.78;;;15.10;99.90;;;;;;5111751;28;20236;-72
2023/03/31 08:15:48;;;;;;;22.20;6.20;;;15.00;99.90;;;;;;5113135;28;20262;-72
2023/03/31 08:18:15;;;;;;;11.70;5.28;;;15.00;99.90;;;;;;5112996;28;20240;-73
2023/03/31 08:20:43;;;;;;;10.75;5.63;;;15.00;99.90;;;;;;5113017;28;20675;-72
2023/03/31 08:23:10;;;;;;;19.00;5.10;;;15.00;99.90;;;;;;5112689;28;20268;-73
2023/03/31 08:25:38;;;;;;;18.92;6.45;;;15.00;99.90;;;;;;5113702;28;20270;-73
2023/03/31 08:28:05;;;;;;;19.30;6.35;;;15.00;99.90;;;;;;5111909;28;20232;-73
2023/03/31 08:30:33;;;;;;;27.88;9.80;;;15.10;99.90;;;;;;5112432;28;20201;-73
2023/03/31 08:33:00;;;;;;;14.77;6.20;;;15.10;99.90;;;;;;5133543;27;20200;-73
2023/03/31 08:35:27;;;;;;;17.65;6.07;;;15.10;99.90;;;;;;5113850;27;20205;-71
2023/03/31 08:37:55;;;;;;;14.90;7.30;;;15.10;99.90;;;;;;5112930;28;20676;-77
2023/03/31 08:40:25;;;;;;;18.60;5.05;;;15.10;99.90;;;;;;5112677;28;20196;-76
2023/03/31 08:42:55;;;;;;;16.42;6.43;;;15.10;99.90;;;;;;5112708;28;20272;-74
2023/03/31 08:45:26;;;;;;;19.70;7.57;;;15.10;99.90;;;;;;5112541;28;20196;-74
2023/03/31 08:47:57;;;;;;;20.35;6.43;;;15.00;99.90;;;;;;5112411;28;20200;-74
2023/03/31 08:50:27;;;;;;;32.05;7.25;;;15.00;99.90;;;;;;5112185;28;20626;-72
2023/03/31 08:53:03;;;;;;;23.63;9.35;;;15.10;99.90;;;;;;5112015;28;20680;-75
2023/03/31 08:55:39;;;;;;;24.40;6.90;;;15.10;99.90;;;;;;5112284;28;20200;-74
2023/03/31 08:58:13;;;;;;;17.98;6.55;;;15.10;99.90;;;;;;5112883;28;20201;-74
2023/03/31 09:00:46;;;;;;;17.23;8.60;;;15.20;99.90;;;;;;5112248;28;20295;-73
2023/03/31 09:03:23;;;;;;;23.42;7.65;;;15.30;99.90;;;;;;5111962;28;20710;-74
2023/03/31 09:05:57;;;;;;;22.42;7.78;;;15.20;99.90;;;;;;5112602;28;20243;-73
2023/03/31 09:08:33;;;;;;;13.85;6.05;;;15.30;99.90;;;;;;5112095;28;20232;-74
2023/03/31 09:11:10;;;;;;;17.05;6.05;;;15.30;99.90;;;;;;5112418;28;20248;-75
2023/03/31 09:14:02;;;;;;;22.40;6.85;;;15.30;99.90;;;;;;5114446;27;20211;-73
2023/03/31 09:16:35;;;;;;;20.02;8.02;;;15.30;99.90;;;;;;5107649;28;20232;-74
2023/03/31 09:19:03;;;;;;;18.67;6.95;;;15.40;99.90;;;;;;5111778;28;20236;-77
2023/03/31 09:21:33;;;;;;;23.20;8.18;;;15.40;99.90;;;;;;5112118;28;20457;-75
2023/03/31 09:24:06;;;;;;;16.85;6.07;;;15.40;99.90;;;;;;5112073;28;20679;-74
2023/03/31 09:26:38;;;;;;;26.70;7.25;;;15.30;99.90;;;;;;5109235;28;20236;-73
2023/03/31 09:29:13;;;;;;;22.08;6.90;;;15.30;99.90;;;;;;5110746;28;20211;-75
2023/03/31 09:31:43;;;;;;;23.17;9.10;;;15.40;99.90;;;;;;5111650;28;20668;-73
2023/03/31 09:34:15;;;;;;;18.38;6.90;;;15.40;99.90;;;;;;5111858;28;20559;-73
2023/03/31 09:36:43;;;;;;;24.73;8.25;;;15.50;99.90;;;;;;5110980;28;20257;-77
2023/03/31 09:39:14;;;;;;;22.00;7.20;;;15.50;99.90;;;;;;5111885;28;20249;-70
2023/03/31 09:41:45;;;;;;;19.27;7.50;;;15.40;99.90;;;;;;5111949;28;20230;-72
2023/03/31 09:44:23;;;;;;;26.17;7.53;;;15.40;99.90;;;;;;5109356;28;20247;-70
2023/03/31 09:46:50;;;;;;;18.33;7.53;;;15.40;99.90;;;;;;5111789;28;20197;-71
2023/03/31 09:49:20;;;;;;;24.73;7.43;;;15.30;99.90;;;;;;5111550;28;20228;-74
2023/03/31 09:51:51;;;;;;;23.88;7.60;;;15.30;99.90;;;;;;5111662;28;20251;-73
2023/03/31 09:54:28;;;;;;;23.83;8.98;;;15.50;99.90;;;;;;5111279;28;20266;-71
2023/03/31 09:56:55;;;;;;;24.85;7.80;;;15.70;99.90;;;;;;5111514;28;20204;-73
2023/03/31 09:59:23;;;;;;;24.88;8.90;;;15.90;99.90;;;;;;5111259;28;20233;-73
2023/03/31 10:01:53;;;;;;;15.05;5.75;;;16.00;99.90;;;;;;5111695;28;20240;-74
2023/03/31 10:04:24;;;;;;;23.08;8.43;;;16.00;99.90;;;;;;5109761;28;20478;-73
2023/03/31 10:06:52;;;;;;;23.58;8.95;;;16.20;99.90;;;;;;5111418;28;20240;-75
2023/03/31 10:09:24;;;;;;;14.32;6.53;;;16.50;99.90;;;;;;5110267;28;20250;-80
2023/03/31 10:11:57;;;;;;;22.40;7.60;;;16.70;99.90;;;;;;5101172;28;20232;-80
2023/03/31 10:14:34;;;;;;;14.30;5.93;;;16.70;99.90;;;;;;5112304;28;20218;-78
2023/03/31 10:17:05;;;;;;;24.30;10.25;;;16.60;99.90;;;;;;5111279;28;20273;-81
2023/03/31 10:19:33;;;;;;;24.67;7.53;;;16.40;99.90;;;;;;5110751;28;20698;-78
2023/03/31 10:22:02;;;;;;;16.98;6.40;;;16.10;99.90;;;;;;5111727;28;20672;-81
2023/03/31 10:24:38;;;;;;;24.90;7.32;;;16.00;99.90;;;;;;5109985;28;20911;-74
2023/03/31 10:27:11;;;;;;;26.60;10.02;;;16.30;99.90;;;;;;5110820;28;20200;-74
2023/03/31 10:29:39;;;;;;;17.20;6.18;;;16.70;99.90;;;;;;5111126;28;20257;-73
2023/03/31 10:32:14;;;;;;;17.50;5.93;;;17.00;99.90;;;;;;5111475;28;20687;-75
2023/03/31 10:34:42;;;;;;;25.48;7.80;;;17.30;99.90;;;;;;5111270;28;20211;-75
2023/03/31 10:37:15;;;;;;;12.52;6.28;;;17.70;99.90;;;;;;5111314;28;20203;-72
2023/03/31 10:39:46;;;;;;;22.83;6.88;;;18.00;99.90;;;;;;5111159;28;20644;-71
2023/03/31 10:42:21;;;;;;;19.92;6.88;;;17.60;99.90;;;;;;5110448;28;20664;-72
2023/03/31 10:44:47;;;;;;;18.55;8.77;;;17.30;99.90;;;;;;5110908;28;20691;-77
2023/03/31 10:47:20;;;;;;;23.85;7.53;;;17.30;99.90;;;;;;5110765;28;20676;-80
2023/03/31 10:49:51;;;;;;;20.65;6.18;;;17.40;99.90;;;;;;5111265;28;20609;-77
2023/03/31 10:52:21;;;;;;;24.98;8.50;;;17.30;99.90;;;;;;5110575;28;20559;-78
2023/03/31 10:54:53;;;;;;;15.95;6.55;;;17.00;99.90;;;;;;5111152;28;20240;-82
2023/03/31 10:57:30;;;;;;;14.93;5.72;;;17.00;99.90;;;;;;5110698;28;20305;-80
2023/03/31 11:00:17;;;;;;;17.88;5.90;;;17.00;99.90;;;;;;5110994;28;20674;-80
2023/03/31 11:03:03;;;;;;;18.45;7.32;;;16.70;99.90;;;;;;5111270;28;20197;-79
2023/03/31 11:05:34;;;;;;;14.82;7.40;;;16.40;99.90;;;;;;5110594;28;20240;-83
2023/03/31 11:08:14;;;;;;;22.63;8.48;;;16.40;99.90;;;;;;5111260;28;20209;-80
2023/03/31 11:11:02;;;;;;;20.63;10.57;;;16.20;99.90;;;;;;5110918;28;20213;-82
2023/03/31 11:13:35;;;;;;;21.80;10.45;;;16.10;99.90;;;;;;5098108;28;20238;-83
2023/03/31 11:16:11;;;;;;;16.48;8.98;;;16.00;99.90;;;;;;5110820;28;20667;-80
2023/03/31 11:18:50;;;;;;;24.90;8.57;;;16.00;99.90;;;;;;5110903;28;20728;-78
2023/03/31 11:21:25;;;;;;;25.13;8.35;;;15.90;99.90;;;;;;5110741;28;20277;-82
2023/03/31 11:24:01;;;;;;;13.00;9.90;;;15.90;99.90;;;;;;5111198;28;20315;-80
2023/03/31 11:26:40;;;;;;;20.30;9.80;;;15.90;99.90;;;;;;5108364;28;20220;-82
2023/03/31 11:29:22;;;;;;;33.20;9.93;;;16.10;99.90;;;;;;5110968;28;20200;-79
2023/03/31 11:31:57;;;;;;;28.25;11.18;;;16.20;99.90;;;;;;5112885;28;20205;-82
2023/03/31 11:34:40;;;;;;;16.42;8.80;;;16.40;99.90;;;;;;5113897;28;20220;-79
2023/03/31 11:37:18;;;;;;;16.88;7.10;;;16.30;99.90;;;;;;5113992;28;20204;-83
2023/03/31 11:40:00;;;;;;;18.45;8.85;;;16.30;99.90;;;;;;5114436;28;20291;-81
2023/03/31 11:42:34;;;;;;;18.02;8.00;;;16.30;99.90;;;;;;5114094;28;20204;-81
2023/03/31 11:45:11;;;;;;;21.55;7.63;;;16.50;99.90;;;;;;5114403;28;20275;-80
2023/03/31 11:47:43;;;;;;;28.23;10.48;;;16.90;99.90;;;;;;5114628;28;20200;-83
2023/03/31 11:50:13;;;;;;;17.15;8.30;;;17.00;99.90;;;;;;5114142;28;20200;-79
2023/03/31 11:52:43;;;;;;;19.55;7.78;;;17.10;99.90;;;;;;5114571;28;20224;-82
2023/03/31 11:55:15;;;;;;;20.10;7.68;;;17.00;99.90;;;;;;5113768;28;20570;-79
2023/03/31 11:57:47;;;;;;;13.88;7.00;;;16.90;99.90;;;;;;5112748;28;20692;-80
2023/03/31 12:00:19;;;;;;;21.15;7.38;;;17.00;99.90;;;;;;5113557;28;20324;-81
2023/03/31 12:02:51;;;;;;;18.63;7.00;;;17.10;99.90;;;;;;5113677;28;20585;-80
2023/03/31 12:05:20;;;;;;;15.70;7.55;;;17.10;99.90;;;;;;5113138;28;20238;-79
2023/03/31 12:07:54;;;;;;;19.88;7.20;;;17.40;99.90;;;;;;5122750;27;20228;-77
2023/03/31 12:10:22;;;;;;;22.20;8.13;;;17.30;99.90;;;;;;5133563;27;20208;-79
2023/03/31 12:12:55;;;;;;;13.88;5.70;;;16.90;99.90;;;;;;5116560;27;20622;-78
2023/03/31 12:15:25;;;;;;;17.85;6.10;;;16.70;99.90;;;;;;5117630;27;20205;-77
2023/03/31 12:18:00;;;;;;;18.08;7.65;;;16.60;99.90;;;;;;5112281;27;20205;-77
2023/03/31 12:20:31;;;;;;;12.82;5.93;;;16.50;99.90;;;;;;5117909;27;20670;-79
2023/03/31 12:22:59;;;;;;;18.00;6.55;;;16.50;99.90;;;;;;5114547;27;20193;-78
2023/03/31 12:25:41;;;;;;;14.63;6.72;;;16.50;99.90;;;;;;5115428;27;20283;-77
2023/03/31 12:28:11;;;;;;;17.63;7.32;;;16.50;99.90;;;;;;5116850;27;20239;-76
2023/03/31 12:30:42;;;;;;;10.55;5.03;;;16.60;99.90;;;;;;5116099;27;20236;-78
2023/03/31 12:33:18;;;;;;;10.40;3.65;;;16.80;99.90;;;;;;5112851;28;20211;-75
2023/03/31 12:35:56;;;;;;;16.33;6.22;;;17.00;99.90;;;;;;5112889;28;20200;-75
2023/03/31 12:38:42;;;;;;;14.43;5.47;;;16.90;99.90;;;;;;5122090;27;20231;-75
2023/03/31 12:41:16;;;;;;;11.48;5.60;;;16.80;99.90;;;;;;5114411;27;20679;-75
2023/03/31 12:44:08;;;;;;;15.02;6.85;;;16.90;99.90;;;;;;5112700;28;20205;-80
2023/03/31 12:46:59;;;;;;;13.80;6.43;;;16.90;99.90;;;;;;5111971;28;20648;-77
2023/03/31 12:49:42;;;;;;;16.50;6.40;;;17.00;99.90;;;;;;5102578;28;20205;-77
2023/03/31 12:52:14;;;;;;;9.57;4.43;;;17.00;99.90;;;;;;5116242;27;20234;-76
2023/03/31 12:55:19;;;;;;;10.35;7.25;;;16.90;99.90;;;;;;5133396;27;20252;-77
2023/03/31 12:57:46;;;;;;;16.75;6.03;;;16.70;99.90;;;;;;5133350;27;20200;-79
2023/03/31 13:00:22;;;;;;;18.05;6.47;;;16.70;99.90;;;;;;5133046;27;20242;-77
2023/03/31 13:02:50;;;;;;;15.65;5.95;;;16.70;99.90;;;;;;5128888;27;20321;-83